sensor_id;sensor_type;location;lat;lon;timestamp;P1;durP1;ratioP1;P2;durP2;ratioP2
66212;SDS011;53015;50.046;8.238;2023-05-10T00:02:11;0.08;;;0.00;;
66212;SDS011;53015;50.046;8.238;2023-05-10T00:04:38;0.43;;;0.10;;
66212;SDS011;53015;50.046;8.238;2023-05-10T00:07:03;2.35;;;0.20;;
66212;SDS011;53015;50.046;8.238;2023-05-10T00:09:29;1.20;;;0.10;;
66212;SDS011;53015;50.046;8.238;2023-05-10T00:11:55;0.10;;;0.10;;
66212;SDS011;53015;50.046;8.238;2023-05-10T00:14:20;3.20;;;0.45;;
66212;SDS011;53015;50.046;8.238;2023-05-10T00:16:46;0.00;;;0.00;;
66212;SDS011;53015;50.046;8.238;2023-05-10T00:19:11;0.15;;;0.15;;
66212;SDS011;53015;50.046;8.238;2023-05-10T00:21:38;0.08;;;0.08;;
66212;SDS011;53015;50.046;8.238;2023-05-10T00:24:04;0.08;;;0.08;;
66212;SDS011;53015;50.046;8.238;2023-05-10T00:26:30;0.10;;;0.10;;
66212;SDS011;53015;50.046;8.238;2023-05-10T00:28:55;0.08;;;0.08;;
66212;SDS011;53015;50.046;8.238;2023-05-10T00:31:21;0.45;;;0.08;;
66212;SDS011;53015;50.046;8.238;2023-05-10T00:33:46;1.45;;;0.10;;
66212;SDS011;53015;50.046;8.238;2023-05-10T00:36:12;0.28;;;0.10;;
66212;SDS011;53015;50.046;8.238;2023-05-10T00:38:38;0.00;;;0.00;;
66212;SDS011;53015;50.046;8.238;2023-05-10T00:41:13;0.28;;;0.10;;
66212;SDS011;53015;50.046;8.238;2023-05-10T00:43:40;0.00;;;0.00;;
66212;SDS011;53015;50.046;8.238;2023-05-10T00:46:05;0.63;;;0.10;;
66212;SDS011;53015;50.046;8.238;2023-05-10T00:48:31;0.20;;;0.10;;
66212;SDS011;53015;50.046;8.238;2023-05-10T00:50:57;0.30;;;0.10;;
66212;SDS011;53015;50.046;8.238;2023-05-10T00:53:22;0.20;;;0.17;;
66212;SDS011;53015;50.046;8.238;2023-05-10T00:55:50;0.17;;;0.10;;
66212;SDS011;53015;50.046;8.238;2023-05-10T00:58:16;0.25;;;0.05;;
66212;SDS011;53015;50.046;8.238;2023-05-10T01:00:42;0.13;;;0.10;;
66212;SDS011;53015;50.046;8.238;2023-05-10T01:03:08;0.03;;;0.03;;
66212;SDS011;53015;50.046;8.238;2023-05-10T01:05:34;0.80;;;0.20;;
66212;SDS011;53015;50.046;8.238;2023-05-10T01:07:59;0.38;;;0.10;;
66212;SDS011;53015;50.046;8.238;2023-05-10T01:10:25;0.10;;;0.10;;
66212;SDS011;53015;50.046;8.238;2023-05-10T01:12:52;0.08;;;0.08;;
66212;SDS011;53015;50.046;8.238;2023-05-10T01:15:18;0.35;;;0.35;;
66212;SDS011;53015;50.046;8.238;2023-05-10T01:17:45;0.20;;;0.10;;
66212;SDS011;53015;50.046;8.238;2023-05-10T01:20:12;0.20;;;0.10;;
66212;SDS011;53015;50.046;8.238;2023-05-10T01:22:42;1.08;;;0.17;;
66212;SDS011;53015;50.046;8.238;2023-05-10T01:28:37;0.10;;;0.10;;
66212;SDS011;53015;50.046;8.238;2023-05-10T01:31:22;0.05;;;0.00;;
66212;SDS011;53015;50.046;8.238;2023-05-10T01:34:00;0.32;;;0.10;;
66212;SDS011;53015;50.046;8.238;2023-05-10T01:36:31;0.10;;;0.10;;
66212;SDS011;53015;50.046;8.238;2023-05-10T01:38:59;0.50;;;0.20;;
66212;SDS011;53015;50.046;8.238;2023-05-10T01:41:31;0.20;;;0.10;;
66212;SDS011;53015;50.046;8.238;2023-05-10T01:44:06;0.43;;;0.20;;
66212;SDS011;53015;50.046;8.238;2023-05-10T01:46:37;0.60;;;0.20;;
66212;SDS011;53015;50.046;8.238;2023-05-10T01:49:07;0.65;;;0.30;;
66212;SDS011;53015;50.046;8.238;2023-05-10T01:51:36;0.68;;;0.20;;
66212;SDS011;53015;50.046;8.238;2023-05-10T01:54:05;0.20;;;0.20;;
66212;SDS011;53015;50.046;8.238;2023-05-10T01:56:33;1.35;;;0.25;;
66212;SDS011;53015;50.046;8.238;2023-05-10T01:59:00;0.35;;;0.17;;
66212;SDS011;53015;50.046;8.238;2023-05-10T02:01:31;0.15;;;0.10;;
66212;SDS011;53015;50.046;8.238;2023-05-10T02:04:00;0.60;;;0.10;;
66212;SDS011;53015;50.046;8.238;2023-05-10T02:06:29;0.28;;;0.22;;
66212;SDS011;53015;50.046;8.238;2023-05-10T02:08:56;0.35;;;0.20;;
66212;SDS011;53015;50.046;8.238;2023-05-10T02:11:22;0.88;;;0.25;;
66212;SDS011;53015;50.046;8.238;2023-05-10T02:13:49;1.85;;;0.22;;
66212;SDS011;53015;50.046;8.238;2023-05-10T02:16:16;1.33;;;0.20;;
66212;SDS011;53015;50.046;8.238;2023-05-10T02:18:46;0.43;;;0.10;;
66212;SDS011;53015;50.046;8.238;2023-05-10T02:21:14;0.60;;;0.22;;
66212;SDS011;53015;50.046;8.238;2023-05-10T02:23:42;2.10;;;0.20;;
66212;SDS011;53015;50.046;8.238;2023-05-10T02:26:09;0.40;;;0.20;;
66212;SDS011;53015;50.046;8.238;2023-05-10T02:28:36;0.52;;;0.20;;
66212;SDS011;53015;50.046;8.238;2023-05-10T02:31:02;0.55;;;0.13;;
66212;SDS011;53015;50.046;8.238;2023-05-10T02:33:28;0.40;;;0.30;;
66212;SDS011;53015;50.046;8.238;2023-05-10T02:35:56;0.10;;;0.10;;
66212;SDS011;53015;50.046;8.238;2023-05-10T02:38:22;2.28;;;0.30;;
66212;SDS011;53015;50.046;8.238;2023-05-10T02:40:49;0.17;;;0.13;;
66212;SDS011;53015;50.046;8.238;2023-05-10T02:43:16;0.43;;;0.20;;
66212;SDS011;53015;50.046;8.238;2023-05-10T02:45:43;0.25;;;0.20;;
66212;SDS011;53015;50.046;8.238;2023-05-10T02:48:12;0.20;;;0.10;;
66212;SDS011;53015;50.046;8.238;2023-05-10T02:50:38;0.20;;;0.20;;
66212;SDS011;53015;50.046;8.238;2023-05-10T02:53:09;0.00;;;0.00;;
66212;SDS011;53015;50.046;8.238;2023-05-10T02:55:38;0.35;;;0.20;;
66212;SDS011;53015;50.046;8.238;2023-05-10T02:58:07;0.50;;;0.10;;
66212;SDS011;53015;50.046;8.238;2023-05-10T03:00:33;0.10;;;0.10;;
66212;SDS011;53015;50.046;8.238;2023-05-10T03:02:58;0.10;;;0.10;;
66212;SDS011;53015;50.046;8.238;2023-05-10T03:05:25;0.15;;;0.10;;
66212;SDS011;53015;50.046;8.238;2023-05-10T03:07:50;0.10;;;0.10;;
66212;SDS011;53015;50.046;8.238;2023-05-10T03:10:17;0.35;;;0.10;;
66212;SDS011;53015;50.046;8.238;2023-05-10T03:12:47;0.30;;;0.30;;
66212;SDS011;53015;50.046;8.238;2023-05-10T03:15:25;0.10;;;0.10;;
66212;SDS011;53015;50.046;8.238;2023-05-10T03:18:00;0.25;;;0.25;;
66212;SDS011;53015;50.046;8.238;2023-05-10T03:20:29;1.80;;;0.22;;
66212;SDS011;53015;50.046;8.238;2023-05-10T03:22:59;0.70;;;0.30;;
66212;SDS011;53015;50.046;8.238;2023-05-10T03:25:27;0.43;;;0.43;;
66212;SDS011;53015;50.046;8.238;2023-05-10T03:27:56;1.48;;;0.22;;
66212;SDS011;53015;50.046;8.238;2023-05-10T03:30:23;0.20;;;0.20;;
66212;SDS011;53015;50.046;8.238;2023-05-10T03:32:49;0.30;;;0.30;;
66212;SDS011;53015;50.046;8.238;2023-05-10T03:35:15;0.38;;;0.30;;
66212;SDS011;53015;50.046;8.238;2023-05-10T03:37:41;0.22;;;0.20;;
66212;SDS011;53015;50.046;8.238;2023-05-10T03:40:07;1.65;;;0.40;;
66212;SDS011;53015;50.046;8.238;2023-05-10T03:42:33;0.52;;;0.13;;
66212;SDS011;53015;50.046;8.238;2023-05-10T03:44:58;0.40;;;0.40;;
66212;SDS011;53015;50.046;8.238;2023-05-10T03:47:25;0.60;;;0.30;;
66212;SDS011;53015;50.046;8.238;2023-05-10T03:49:51;0.55;;;0.20;;
66212;SDS011;53015;50.046;8.238;2023-05-10T03:52:17;0.55;;;0.17;;
66212;SDS011;53015;50.046;8.238;2023-05-10T03:54:42;2.08;;;0.22;;
66212;SDS011;53015;50.046;8.238;2023-05-10T03:57:08;0.40;;;0.30;;
66212;SDS011;53015;50.046;8.238;2023-05-10T03:59:33;0.50;;;0.50;;
66212;SDS011;53015;50.046;8.238;2023-05-10T04:01:59;1.85;;;0.50;;
66212;SDS011;53015;50.046;8.238;2023-05-10T04:04:26;1.23;;;0.50;;
66212;SDS011;53015;50.046;8.238;2023-05-10T04:06:51;0.70;;;0.40;;
66212;SDS011;53015;50.046;8.238;2023-05-10T04:09:17;0.90;;;0.47;;
66212;SDS011;53015;50.046;8.238;2023-05-10T04:11:43;2.30;;;0.50;;
66212;SDS011;53015;50.046;8.238;2023-05-10T04:14:08;0.50;;;0.45;;
66212;SDS011;53015;50.046;8.238;2023-05-10T04:16:34;0.73;;;0.47;;
66212;SDS011;53015;50.046;8.238;2023-05-10T04:18:59;0.30;;;0.30;;
66212;SDS011;53015;50.046;8.238;2023-05-10T04:21:26;0.35;;;0.35;;
66212;SDS011;53015;50.046;8.238;2023-05-10T04:23:52;1.55;;;0.52;;
66212;SDS011;53015;50.046;8.238;2023-05-10T04:26:17;0.70;;;0.50;;
66212;SDS011;53015;50.046;8.238;2023-05-10T04:28:43;0.65;;;0.43;;
66212;SDS011;53015;50.046;8.238;2023-05-10T04:31:09;2.05;;;0.60;;
66212;SDS011;53015;50.046;8.238;2023-05-10T04:33:35;1.65;;;0.63;;
66212;SDS011;53015;50.046;8.238;2023-05-10T04:36:01;0.98;;;0.52;;
66212;SDS011;53015;50.046;8.238;2023-05-10T04:38:31;0.77;;;0.30;;
66212;SDS011;53015;50.046;8.238;2023-05-10T04:41:03;2.53;;;0.50;;
66212;SDS011;53015;50.046;8.238;2023-05-10T04:43:29;0.90;;;0.47;;
66212;SDS011;53015;50.046;8.238;2023-05-10T04:45:55;1.27;;;0.38;;
66212;SDS011;53015;50.046;8.238;2023-05-10T04:48:21;1.08;;;0.68;;
66212;SDS011;53015;50.046;8.238;2023-05-10T04:50:46;0.75;;;0.60;;
66212;SDS011;53015;50.046;8.238;2023-05-10T04:53:12;1.00;;;0.57;;
66212;SDS011;53015;50.046;8.238;2023-05-10T04:55:39;3.03;;;0.90;;
66212;SDS011;53015;50.046;8.238;2023-05-10T04:58:04;1.75;;;0.50;;
66212;SDS011;53015;50.046;8.238;2023-05-10T05:00:30;1.58;;;0.50;;
66212;SDS011;53015;50.046;8.238;2023-05-10T05:02:55;1.00;;;0.40;;
66212;SDS011;53015;50.046;8.238;2023-05-10T05:05:21;2.83;;;0.43;;
66212;SDS011;53015;50.046;8.238;2023-05-10T05:07:46;2.25;;;0.60;;
66212;SDS011;53015;50.046;8.238;2023-05-10T05:10:12;0.65;;;0.30;;
66212;SDS011;53015;50.046;8.238;2023-05-10T05:12:39;0.63;;;0.63;;
66212;SDS011;53015;50.046;8.238;2023-05-10T05:15:05;0.45;;;0.45;;
66212;SDS011;53015;50.046;8.238;2023-05-10T05:17:31;0.82;;;0.70;;
66212;SDS011;53015;50.046;8.238;2023-05-10T05:19:56;0.82;;;0.70;;
66212;SDS011;53015;50.046;8.238;2023-05-10T05:22:22;1.38;;;0.70;;
66212;SDS011;53015;50.046;8.238;2023-05-10T05:24:47;0.60;;;0.60;;
66212;SDS011;53015;50.046;8.238;2023-05-10T05:27:13;0.82;;;0.65;;
66212;SDS011;53015;50.046;8.238;2023-05-10T05:29:40;0.95;;;0.60;;
66212;SDS011;53015;50.046;8.238;2023-05-10T05:32:05;2.13;;;0.50;;
66212;SDS011;53015;50.046;8.238;2023-05-10T05:34:31;0.70;;;0.70;;
66212;SDS011;53015;50.046;8.238;2023-05-10T05:36:56;0.40;;;0.40;;
66212;SDS011;53015;50.046;8.238;2023-05-10T05:39:22;1.40;;;0.70;;
66212;SDS011;53015;50.046;8.238;2023-05-10T05:41:47;1.05;;;0.77;;
66212;SDS011;53015;50.046;8.238;2023-05-10T05:44:13;1.45;;;0.60;;
66212;SDS011;53015;50.046;8.238;2023-05-10T05:46:40;1.17;;;0.80;;
66212;SDS011;53015;50.046;8.238;2023-05-10T05:49:05;1.17;;;0.70;;
66212;SDS011;53015;50.046;8.238;2023-05-10T05:51:31;1.33;;;0.88;;
66212;SDS011;53015;50.046;8.238;2023-05-10T05:53:56;2.25;;;0.90;;
66212;SDS011;53015;50.046;8.238;2023-05-10T05:56:22;0.75;;;0.73;;
66212;SDS011;53015;50.046;8.238;2023-05-10T05:58:47;0.82;;;0.70;;
66212;SDS011;53015;50.046;8.238;2023-05-10T06:01:13;2.20;;;0.98;;
66212;SDS011;53015;50.046;8.238;2023-05-10T06:03:40;3.83;;;1.17;;
66212;SDS011;53015;50.046;8.238;2023-05-10T06:06:05;1.40;;;0.80;;
66212;SDS011;53015;50.046;8.238;2023-05-10T06:08:31;1.42;;;1.10;;
66212;SDS011;53015;50.046;8.238;2023-05-10T06:11:00;7.25;;;1.30;;
66212;SDS011;53015;50.046;8.238;2023-05-10T06:13:25;2.75;;;1.00;;
66212;SDS011;53015;50.046;8.238;2023-05-10T06:15:51;1.67;;;1.00;;
66212;SDS011;53015;50.046;8.238;2023-05-10T06:18:16;1.15;;;1.02;;
66212;SDS011;53015;50.046;8.238;2023-05-10T06:20:43;2.50;;;0.80;;
66212;SDS011;53015;50.046;8.238;2023-05-10T06:23:09;3.72;;;0.93;;
66212;SDS011;53015;50.046;8.238;2023-05-10T06:25:34;1.30;;;0.70;;
66212;SDS011;53015;50.046;8.238;2023-05-10T06:28:00;0.80;;;0.80;;
66212;SDS011;53015;50.046;8.238;2023-05-10T06:30:25;1.80;;;1.10;;
66212;SDS011;53015;50.046;8.238;2023-05-10T06:32:51;1.95;;;0.90;;
66212;SDS011;53015;50.046;8.238;2023-05-10T06:35:16;2.72;;;0.82;;
66212;SDS011;53015;50.046;8.238;2023-05-10T06:37:43;2.20;;;1.10;;
66212;SDS011;53015;50.046;8.238;2023-05-10T06:40:09;1.02;;;0.90;;
66212;SDS011;53015;50.046;8.238;2023-05-10T06:42:35;0.68;;;0.63;;
66212;SDS011;53015;50.046;8.238;2023-05-10T06:45:01;2.10;;;1.00;;
66212;SDS011;53015;50.046;8.238;2023-05-10T06:47:26;1.38;;;1.05;;
66212;SDS011;53015;50.046;8.238;2023-05-10T06:49:52;1.00;;;0.80;;
66212;SDS011;53015;50.046;8.238;2023-05-10T06:52:17;1.27;;;0.80;;
66212;SDS011;53015;50.046;8.238;2023-05-10T06:54:44;0.98;;;0.88;;
66212;SDS011;53015;50.046;8.238;2023-05-10T06:57:09;0.63;;;0.63;;
66212;SDS011;53015;50.046;8.238;2023-05-10T06:59:35;1.67;;;0.80;;
66212;SDS011;53015;50.046;8.238;2023-05-10T07:02:00;0.75;;;0.70;;
66212;SDS011;53015;50.046;8.238;2023-05-10T07:04:26;2.58;;;0.60;;
66212;SDS011;53015;50.046;8.238;2023-05-10T07:06:51;0.90;;;0.80;;
66212;SDS011;53015;50.046;8.238;2023-05-10T07:09:17;1.25;;;1.00;;
66212;SDS011;53015;50.046;8.238;2023-05-10T07:11:44;0.73;;;0.73;;
66212;SDS011;53015;50.046;8.238;2023-05-10T07:14:09;1.30;;;0.82;;
66212;SDS011;53015;50.046;8.238;2023-05-10T07:16:35;0.93;;;0.85;;
66212;SDS011;53015;50.046;8.238;2023-05-10T07:19:00;2.10;;;1.00;;
66212;SDS011;53015;50.046;8.238;2023-05-10T07:21:26;1.42;;;0.95;;
66212;SDS011;53015;50.046;8.238;2023-05-10T07:23:51;0.85;;;0.80;;
66212;SDS011;53015;50.046;8.238;2023-05-10T07:26:17;1.33;;;0.70;;
66212;SDS011;53015;50.046;8.238;2023-05-10T07:28:43;0.80;;;0.70;;
66212;SDS011;53015;50.046;8.238;2023-05-10T07:31:09;1.40;;;0.63;;
66212;SDS011;53015;50.046;8.238;2023-05-10T07:33:34;0.70;;;0.70;;
66212;SDS011;53015;50.046;8.238;2023-05-10T07:36:00;0.95;;;0.80;;
66212;SDS011;53015;50.046;8.238;2023-05-10T07:38:25;2.08;;;0.82;;
66212;SDS011;53015;50.046;8.238;2023-05-10T07:40:51;2.67;;;0.65;;
66212;SDS011;53015;50.046;8.238;2023-05-10T07:43:16;1.38;;;0.82;;
66212;SDS011;53015;50.046;8.238;2023-05-10T07:45:43;2.15;;;0.90;;
66212;SDS011;53015;50.046;8.238;2023-05-10T07:48:09;3.30;;;1.50;;
66212;SDS011;53015;50.046;8.238;2023-05-10T07:50:34;2.70;;;0.90;;
66212;SDS011;53015;50.046;8.238;2023-05-10T07:53:00;0.80;;;0.73;;
66212;SDS011;53015;50.046;8.238;2023-05-10T07:55:25;3.60;;;0.90;;
66212;SDS011;53015;50.046;8.238;2023-05-10T07:57:51;6.65;;;1.52;;
66212;SDS011;53015;50.046;8.238;2023-05-10T08:00:17;2.92;;;1.02;;
66212;SDS011;53015;50.046;8.238;2023-05-10T08:02:44;2.30;;;0.90;;
66212;SDS011;53015;50.046;8.238;2023-05-10T08:05:10;3.80;;;1.40;;
66212;SDS011;53015;50.046;8.238;2023-05-10T08:07:35;0.93;;;0.70;;
66212;SDS011;53015;50.046;8.238;2023-05-10T08:10:01;2.83;;;0.80;;
66212;SDS011;53015;50.046;8.238;2023-05-10T08:12:26;1.33;;;0.70;;
66212;SDS011;53015;50.046;8.238;2023-05-10T08:14:52;1.40;;;0.75;;
66212;SDS011;53015;50.046;8.238;2023-05-10T08:17:17;1.58;;;0.65;;
66212;SDS011;53015;50.046;8.238;2023-05-10T08:19:44;0.75;;;0.68;;
66212;SDS011;53015;50.046;8.238;2023-05-10T08:22:10;1.55;;;1.20;;
66212;SDS011;53015;50.046;8.238;2023-05-10T08:24:35;1.20;;;0.52;;
66212;SDS011;53015;50.046;8.238;2023-05-10T08:27:01;1.73;;;0.98;;
66212;SDS011;53015;50.046;8.238;2023-05-10T08:29:26;1.80;;;0.63;;
66212;SDS011;53015;50.046;8.238;2023-05-10T08:31:52;1.50;;;0.90;;
66212;SDS011;53015;50.046;8.238;2023-05-10T08:34:17;1.17;;;0.60;;
66212;SDS011;53015;50.046;8.238;2023-05-10T08:36:44;1.77;;;0.60;;
66212;SDS011;53015;50.046;8.238;2023-05-10T08:39:09;1.35;;;0.60;;
66212;SDS011;53015;50.046;8.238;2023-05-10T08:41:35;0.55;;;0.52;;
66212;SDS011;53015;50.046;8.238;2023-05-10T08:44:04;1.88;;;0.60;;
66212;SDS011;53015;50.046;8.238;2023-05-10T08:46:29;1.45;;;0.60;;
66212;SDS011;53015;50.046;8.238;2023-05-10T08:48:58;2.13;;;0.63;;
66212;SDS011;53015;50.046;8.238;2023-05-10T08:51:27;2.25;;;0.60;;
66212;SDS011;53015;50.046;8.238;2023-05-10T08:54:01;4.20;;;2.13;;
66212;SDS011;53015;50.046;8.238;2023-05-10T08:56:28;1.95;;;0.77;;
66212;SDS011;53015;50.046;8.238;2023-05-10T08:58:54;2.47;;;0.75;;
66212;SDS011;53015;50.046;8.238;2023-05-10T09:01:20;3.60;;;1.15;;
66212;SDS011;53015;50.046;8.238;2023-05-10T09:03:46;1.08;;;0.68;;
66212;SDS011;53015;50.046;8.238;2023-05-10T09:06:12;3.05;;;1.00;;
66212;SDS011;53015;50.046;8.238;2023-05-10T09:08:38;1.30;;;0.75;;
66212;SDS011;53015;50.046;8.238;2023-05-10T09:11:05;4.10;;;1.30;;
66212;SDS011;53015;50.046;8.238;2023-05-10T09:13:31;2.13;;;1.00;;
66212;SDS011;53015;50.046;8.238;2023-05-10T09:15:57;7.85;;;2.00;;
66212;SDS011;53015;50.046;8.238;2023-05-10T09:18:23;1.30;;;0.90;;
66212;SDS011;53015;50.046;8.238;2023-05-10T09:20:48;1.05;;;0.98;;
66212;SDS011;53015;50.046;8.238;2023-05-10T09:23:14;3.28;;;0.80;;
66212;SDS011;53015;50.046;8.238;2023-05-10T09:25:40;1.52;;;0.50;;
66212;SDS011;53015;50.046;8.238;2023-05-10T09:28:08;0.40;;;0.40;;
66212;SDS011;53015;50.046;8.238;2023-05-10T09:30:34;1.48;;;0.50;;
66212;SDS011;53015;50.046;8.238;2023-05-10T09:33:00;2.28;;;0.50;;
66212;SDS011;53015;50.046;8.238;2023-05-10T09:35:26;0.40;;;0.32;;
66212;SDS011;53015;50.046;8.238;2023-05-10T09:37:53;0.90;;;0.28;;
66212;SDS011;53015;50.046;8.238;2023-05-10T09:40:21;0.40;;;0.35;;
66212;SDS011;53015;50.046;8.238;2023-05-10T09:42:51;1.05;;;0.30;;
66212;SDS011;53015;50.046;8.238;2023-05-10T09:45:20;2.03;;;0.70;;
66212;SDS011;53015;50.046;8.238;2023-05-10T09:47:46;0.68;;;0.32;;
66212;SDS011;53015;50.046;8.238;2023-05-10T09:50:11;0.30;;;0.30;;
66212;SDS011;53015;50.046;8.238;2023-05-10T09:52:45;0.30;;;0.30;;
66212;SDS011;53015;50.046;8.238;2023-05-10T09:55:12;0.77;;;0.40;;
66212;SDS011;53015;50.046;8.238;2023-05-10T09:57:37;0.77;;;0.40;;
66212;SDS011;53015;50.046;8.238;2023-05-10T10:00:04;0.50;;;0.40;;
66212;SDS011;53015;50.046;8.238;2023-05-10T10:02:32;0.40;;;0.30;;
66212;SDS011;53015;50.046;8.238;2023-05-10T10:04:58;1.80;;;0.40;;
66212;SDS011;53015;50.046;8.238;2023-05-10T10:07:26;0.57;;;0.40;;
66212;SDS011;53015;50.046;8.238;2023-05-10T10:09:52;1.10;;;0.50;;
66212;SDS011;53015;50.046;8.238;2023-05-10T10:12:18;0.50;;;0.20;;
66212;SDS011;53015;50.046;8.238;2023-05-10T10:14:45;0.55;;;0.17;;
66212;SDS011;53015;50.046;8.238;2023-05-10T10:17:11;0.88;;;0.30;;
66212;SDS011;53015;50.046;8.238;2023-05-10T10:19:39;1.30;;;0.20;;
66212;SDS011;53015;50.046;8.238;2023-05-10T10:22:05;0.50;;;0.28;;
66212;SDS011;53015;50.046;8.238;2023-05-10T10:24:30;0.98;;;0.25;;
66212;SDS011;53015;50.046;8.238;2023-05-10T10:26:57;1.35;;;0.10;;
66212;SDS011;53015;50.046;8.238;2023-05-10T10:29:31;0.25;;;0.20;;
66212;SDS011;53015;50.046;8.238;2023-05-10T10:32:03;0.40;;;0.40;;
66212;SDS011;53015;50.046;8.238;2023-05-10T10:34:35;0.35;;;0.35;;
66212;SDS011;53015;50.046;8.238;2023-05-10T10:37:05;0.90;;;0.20;;
66212;SDS011;53015;50.046;8.238;2023-05-10T10:39:31;0.20;;;0.20;;
66212;SDS011;53015;50.046;8.238;2023-05-10T10:41:57;0.22;;;0.20;;
66212;SDS011;53015;50.046;8.238;2023-05-10T10:44:23;0.45;;;0.20;;
66212;SDS011;53015;50.046;8.238;2023-05-10T10:46:59;0.40;;;0.22;;
66212;SDS011;53015;50.046;8.238;2023-05-10T10:49:30;0.20;;;0.20;;
66212;SDS011;53015;50.046;8.238;2023-05-10T10:54:58;1.75;;;0.20;;
66212;SDS011;53015;50.046;8.238;2023-05-10T10:57:25;0.15;;;0.15;;
66212;SDS011;53015;50.046;8.238;2023-05-10T10:59:51;0.17;;;0.17;;
66212;SDS011;53015;50.046;8.238;2023-05-10T11:02:43;0.17;;;0.13;;
66212;SDS011;53015;50.046;8.238;2023-05-10T11:05:22;0.35;;;0.30;;
66212;SDS011;53015;50.046;8.238;2023-05-10T11:08:00;0.45;;;0.25;;
66212;SDS011;53015;50.046;8.238;2023-05-10T11:10:32;0.10;;;0.10;;
66212;SDS011;53015;50.046;8.238;2023-05-10T11:12:59;0.63;;;0.30;;
66212;SDS011;53015;50.046;8.238;2023-05-10T11:15:28;0.45;;;0.30;;
66212;SDS011;53015;50.046;8.238;2023-05-10T11:17:54;0.22;;;0.20;;
66212;SDS011;53015;50.046;8.238;2023-05-10T11:20:19;0.30;;;0.30;;
66212;SDS011;53015;50.046;8.238;2023-05-10T11:22:49;0.50;;;0.20;;
66212;SDS011;53015;50.046;8.238;2023-05-10T11:25:16;0.50;;;0.20;;
66212;SDS011;53015;50.046;8.238;2023-05-10T11:27:41;0.52;;;0.10;;
66212;SDS011;53015;50.046;8.238;2023-05-10T11:30:07;0.22;;;0.13;;
66212;SDS011;53015;50.046;8.238;2023-05-10T11:32:36;0.52;;;0.30;;
66212;SDS011;53015;50.046;8.238;2023-05-10T11:35:06;1.25;;;0.20;;
66212;SDS011;53015;50.046;8.238;2023-05-10T11:37:33;0.20;;;0.20;;
66212;SDS011;53015;50.046;8.238;2023-05-10T11:39:59;0.20;;;0.20;;
66212;SDS011;53015;50.046;8.238;2023-05-10T11:42:26;0.30;;;0.30;;
66212;SDS011;53015;50.046;8.238;2023-05-10T11:44:52;1.13;;;0.20;;
66212;SDS011;53015;50.046;8.238;2023-05-10T11:47:18;0.35;;;0.30;;
66212;SDS011;53015;50.046;8.238;2023-05-10T11:49:43;0.20;;;0.20;;
66212;SDS011;53015;50.046;8.238;2023-05-10T11:52:09;0.45;;;0.30;;
66212;SDS011;53015;50.046;8.238;2023-05-10T11:54:35;0.32;;;0.20;;
66212;SDS011;53015;50.046;8.238;2023-05-10T11:57:00;0.50;;;0.50;;
66212;SDS011;53015;50.046;8.238;2023-05-10T11:59:27;1.02;;;0.30;;
66212;SDS011;53015;50.046;8.238;2023-05-10T12:01:52;0.38;;;0.25;;
66212;SDS011;53015;50.046;8.238;2023-05-10T12:04:18;0.82;;;0.17;;
66212;SDS011;53015;50.046;8.238;2023-05-10T12:06:44;0.43;;;0.20;;
66212;SDS011;53015;50.046;8.238;2023-05-10T12:09:10;0.22;;;0.22;;
66212;SDS011;53015;50.046;8.238;2023-05-10T12:11:36;0.77;;;0.47;;
66212;SDS011;53015;50.046;8.238;2023-05-10T12:14:03;1.67;;;0.28;;
66212;SDS011;53015;50.046;8.238;2023-05-10T12:16:31;0.75;;;0.20;;
66212;SDS011;53015;50.046;8.238;2023-05-10T12:18:58;0.10;;;0.10;;
66212;SDS011;53015;50.046;8.238;2023-05-10T12:21:25;0.22;;;0.20;;
66212;SDS011;53015;50.046;8.238;2023-05-10T12:23:53;0.47;;;0.17;;
66212;SDS011;53015;50.046;8.238;2023-05-10T12:26:21;0.30;;;0.13;;
66212;SDS011;53015;50.046;8.238;2023-05-10T12:28:47;0.20;;;0.20;;
66212;SDS011;53015;50.046;8.238;2023-05-10T12:31:12;0.45;;;0.20;;
66212;SDS011;53015;50.046;8.238;2023-05-10T12:33:39;0.40;;;0.25;;
66212;SDS011;53015;50.046;8.238;2023-05-10T12:36:06;0.70;;;0.68;;
66212;SDS011;53015;50.046;8.238;2023-05-10T12:38:32;0.47;;;0.43;;
66212;SDS011;53015;50.046;8.238;2023-05-10T12:40:59;0.47;;;0.20;;
66212;SDS011;53015;50.046;8.238;2023-05-10T12:43:26;0.13;;;0.10;;
66212;SDS011;53015;50.046;8.238;2023-05-10T12:45:51;0.32;;;0.20;;
66212;SDS011;53015;50.046;8.238;2023-05-10T12:48:17;0.15;;;0.10;;
66212;SDS011;53015;50.046;8.238;2023-05-10T12:50:44;0.10;;;0.10;;
66212;SDS011;53015;50.046;8.238;2023-05-10T12:53:09;0.10;;;0.10;;
66212;SDS011;53015;50.046;8.238;2023-05-10T12:55:35;0.20;;;0.10;;
66212;SDS011;53015;50.046;8.238;2023-05-10T12:58:00;0.38;;;0.13;;
66212;SDS011;53015;50.046;8.238;2023-05-10T13:00:26;0.20;;;0.20;;
66212;SDS011;53015;50.046;8.238;2023-05-10T13:02:51;0.55;;;0.22;;
66212;SDS011;53015;50.046;8.238;2023-05-10T13:05:17;0.10;;;0.10;;
66212;SDS011;53015;50.046;8.238;2023-05-10T13:07:44;0.08;;;0.08;;
66212;SDS011;53015;50.046;8.238;2023-05-10T13:10:09;0.10;;;0.10;;
66212;SDS011;53015;50.046;8.238;2023-05-10T13:12:35;1.25;;;0.40;;
66212;SDS011;53015;50.046;8.238;2023-05-10T13:15:01;0.20;;;0.10;;
66212;SDS011;53015;50.046;8.238;2023-05-10T13:17:26;0.30;;;0.20;;
66212;SDS011;53015;50.046;8.238;2023-05-10T13:19:52;0.20;;;0.20;;
66212;SDS011;53015;50.046;8.238;2023-05-10T13:22:17;1.08;;;0.15;;
66212;SDS011;53015;50.046;8.238;2023-05-10T13:24:44;0.40;;;0.25;;
66212;SDS011;53015;50.046;8.238;2023-05-10T13:27:10;0.20;;;0.20;;
66212;SDS011;53015;50.046;8.238;2023-05-10T13:29:35;0.20;;;0.20;;
66212;SDS011;53015;50.046;8.238;2023-05-10T13:32:01;0.03;;;0.03;;
66212;SDS011;53015;50.046;8.238;2023-05-10T13:34:26;0.25;;;0.20;;
66212;SDS011;53015;50.046;8.238;2023-05-10T13:36:52;0.45;;;0.22;;
66212;SDS011;53015;50.046;8.238;2023-05-10T13:39:18;0.10;;;0.10;;
66212;SDS011;53015;50.046;8.238;2023-05-10T13:41:45;0.20;;;0.20;;
66212;SDS011;53015;50.046;8.238;2023-05-10T13:44:11;0.28;;;0.10;;
66212;SDS011;53015;50.046;8.238;2023-05-10T13:46:37;0.20;;;0.20;;
66212;SDS011;53015;50.046;8.238;2023-05-10T13:49:03;0.43;;;0.20;;
66212;SDS011;53015;50.046;8.238;2023-05-10T13:51:28;1.13;;;0.22;;
66212;SDS011;53015;50.046;8.238;2023-05-10T13:53:54;1.75;;;0.20;;
66212;SDS011;53015;50.046;8.238;2023-05-10T13:56:19;0.65;;;0.20;;
66212;SDS011;53015;50.046;8.238;2023-05-10T13:58:46;1.33;;;0.13;;
66212;SDS011;53015;50.046;8.238;2023-05-10T14:01:11;0.20;;;0.20;;
66212;SDS011;53015;50.046;8.238;2023-05-10T14:03:37;0.22;;;0.20;;
66212;SDS011;53015;50.046;8.238;2023-05-10T14:06:02;0.57;;;0.20;;
66212;SDS011;53015;50.046;8.238;2023-05-10T14:08:28;1.30;;;0.20;;
66212;SDS011;53015;50.046;8.238;2023-05-10T14:10:54;0.30;;;0.20;;
66212;SDS011;53015;50.046;8.238;2023-05-10T14:13:19;0.10;;;0.10;;
66212;SDS011;53015;50.046;8.238;2023-05-10T14:15:46;0.20;;;0.20;;
66212;SDS011;53015;50.046;8.238;2023-05-10T14:18:11;0.10;;;0.10;;
66212;SDS011;53015;50.046;8.238;2023-05-10T14:20:37;0.40;;;0.15;;
66212;SDS011;53015;50.046;8.238;2023-05-10T14:23:02;1.15;;;0.80;;
66212;SDS011;53015;50.046;8.238;2023-05-10T14:25:28;0.40;;;0.30;;
66212;SDS011;53015;50.046;8.238;2023-05-10T14:27:53;0.30;;;0.28;;
66212;SDS011;53015;50.046;8.238;2023-05-10T14:30:19;0.30;;;0.20;;
66212;SDS011;53015;50.046;8.238;2023-05-10T14:32:46;1.55;;;0.20;;
66212;SDS011;53015;50.046;8.238;2023-05-10T14:35:11;0.35;;;0.32;;
66212;SDS011;53015;50.046;8.238;2023-05-10T14:37:37;0.22;;;0.20;;
66212;SDS011;53015;50.046;8.238;2023-05-10T14:40:03;0.20;;;0.20;;
66212;SDS011;53015;50.046;8.238;2023-05-10T14:42:29;0.20;;;0.20;;
66212;SDS011;53015;50.046;8.238;2023-05-10T14:44:54;1.65;;;0.40;;
66212;SDS011;53015;50.046;8.238;2023-05-10T14:47:20;0.52;;;0.30;;
66212;SDS011;53015;50.046;8.238;2023-05-10T14:49:47;0.90;;;0.35;;
66212;SDS011;53015;50.046;8.238;2023-05-10T14:52:12;0.80;;;0.25;;